createdAt,value
2023-03-29T00:00:31.329Z,508.00
2023-03-29T00:01:35.689Z,511.00
2023-03-29T00:02:32.389Z,511.00
2023-03-29T00:03:31.372Z,511.00
2023-03-29T00:04:31.411Z,512.00
2023-03-29T00:05:31.307Z,510.00
2023-03-29T00:06:31.298Z,513.00
2023-03-29T00:07:31.306Z,506.00
2023-03-29T00:08:31.316Z,508.00
2023-03-29T00:09:31.272Z,509.00
2023-03-29T00:10:31.278Z,504.00
2023-03-29T00:11:31.263Z,510.00
2023-03-29T00:12:31.252Z,504.00
2023-03-29T00:13:31.246Z,509.00
2023-03-29T00:14:31.290Z,511.00
2023-03-29T00:15:31.330Z,500.00
2023-03-29T00:16:31.266Z,506.00
2023-03-29T00:17:31.256Z,507.00
2023-03-29T00:18:31.204Z,508.00
2023-03-29T00:19:31.228Z,512.00
2023-03-29T00:20:31.191Z,513.00
2023-03-29T00:21:31.190Z,510.00
2023-03-29T00:22:31.211Z,509.00
2023-03-29T00:23:31.215Z,508.00
2023-03-29T00:24:31.229Z,507.00
2023-03-29T00:25:31.236Z,502.00
2023-03-29T00:26:31.258Z,502.00
2023-03-29T00:27:31.230Z,507.00
2023-03-29T00:28:31.264Z,506.00
2023-03-29T00:29:31.294Z,502.00
2023-03-29T00:30:31.261Z,508.00
2023-03-29T00:31:31.319Z,507.00
2023-03-29T00:32:31.361Z,506.00
2023-03-29T00:33:31.308Z,508.00
2023-03-29T00:34:31.313Z,507.00
2023-03-29T00:35:31.372Z,508.00
2023-03-29T00:36:31.341Z,505.00
2023-03-29T00:37:31.344Z,505.00
2023-03-29T00:38:31.370Z,511.00
2023-03-29T00:39:31.407Z,506.00
2023-03-29T00:40:31.393Z,509.00
2023-03-29T00:41:31.419Z,510.00
2023-03-29T00:42:31.462Z,510.00
2023-03-29T00:43:31.454Z,509.00
2023-03-29T00:44:31.452Z,504.00
2023-03-29T00:45:31.466Z,505.00
2023-03-29T00:46:31.568Z,510.00
2023-03-29T00:47:31.522Z,509.00
2023-03-29T00:48:31.527Z,512.00
2023-03-29T00:49:31.531Z,509.00
2023-03-29T00:50:31.546Z,513.00
2023-03-29T00:51:31.554Z,506.00
2023-03-29T00:52:31.574Z,506.00
2023-03-29T00:53:31.614Z,508.00
2023-03-29T00:54:31.593Z,513.00
2023-03-29T00:55:31.627Z,511.00
2023-03-29T00:56:31.637Z,509.00
2023-03-29T00:57:31.731Z,512.00
2023-03-29T00:58:31.650Z,512.00
2023-03-29T00:59:31.704Z,506.00
2023-03-29T01:00:31.757Z,509.00
2023-03-29T01:01:31.711Z,506.00
2023-03-29T01:02:31.767Z,512.00
2023-03-29T01:03:31.779Z,512.00
2023-03-29T01:04:31.717Z,508.00
2023-03-29T01:05:31.738Z,510.00
2023-03-29T01:06:31.781Z,510.00
2023-03-29T01:07:31.767Z,506.00
2023-03-29T01:08:31.821Z,511.00
2023-03-29T01:09:31.762Z,505.00
2023-03-29T01:10:31.778Z,511.00
2023-03-29T01:11:31.817Z,513.00
2023-03-29T01:12:31.841Z,510.00
2023-03-29T01:13:31.836Z,510.00
2023-03-29T01:14:31.836Z,505.00
2023-03-29T01:15:31.893Z,507.00
2023-03-29T01:16:31.896Z,506.00
2023-03-29T01:17:31.966Z,512.00
2023-03-29T01:18:31.871Z,504.00
2023-03-29T01:19:31.907Z,513.00
2023-03-29T01:20:31.896Z,512.00
2023-03-29T01:21:31.910Z,503.00
2023-03-29T01:22:31.947Z,511.00
2023-03-29T01:23:31.976Z,514.00
2023-03-29T01:24:31.981Z,511.00
2023-03-29T01:25:31.985Z,514.00
2023-03-29T01:26:31.990Z,510.00
2023-03-29T01:27:32.017Z,511.00
2023-03-29T01:28:32.035Z,509.00
2023-03-29T01:29:32.032Z,511.00
2023-03-29T01:30:32.041Z,509.00
2023-03-29T01:31:32.109Z,513.00
2023-03-29T01:32:32.119Z,511.00
2023-03-29T01:33:32.100Z,509.00
2023-03-29T01:34:32.107Z,504.00
2023-03-29T01:35:32.144Z,508.00
2023-03-29T01:36:32.124Z,508.00
2023-03-29T01:37:32.148Z,508.00
2023-03-29T01:38:32.139Z,510.00
2023-03-29T01:39:32.161Z,510.00
2023-03-29T01:40:32.256Z,510.00
2023-03-29T01:41:32.188Z,510.00
2023-03-29T01:42:32.212Z,509.00
2023-03-29T01:43:32.206Z,507.00
2023-03-29T01:44:32.216Z,507.00
2023-03-29T01:45:32.249Z,505.00
2023-03-29T01:46:32.346Z,506.00
2023-03-29T01:47:32.370Z,512.00
2023-03-29T01:48:32.311Z,506.00
2023-03-29T01:49:32.325Z,506.00
2023-03-29T01:50:32.368Z,511.00
2023-03-29T01:51:32.368Z,509.00
2023-03-29T01:52:32.388Z,511.00
2023-03-29T01:53:32.436Z,510.00
2023-03-29T01:54:32.428Z,507.00
2023-03-29T01:55:32.425Z,507.00
2023-03-29T01:56:32.463Z,504.00
2023-03-29T01:57:32.522Z,508.00
2023-03-29T01:58:32.530Z,509.00
2023-03-29T01:59:32.521Z,511.00
2023-03-29T02:00:32.546Z,500.00
2023-03-29T02:01:32.717Z,513.00
2023-03-29T02:02:32.642Z,512.00
2023-03-29T02:03:32.669Z,513.00
2023-03-29T02:04:32.650Z,512.00
2023-03-29T02:05:32.650Z,512.00
2023-03-29T02:06:32.676Z,515.00
2023-03-29T02:07:32.697Z,510.00
2023-03-29T02:08:32.731Z,511.00
2023-03-29T02:09:32.763Z,507.00
2023-03-29T02:10:32.778Z,509.00
2023-03-29T02:11:32.771Z,509.00
2023-03-29T02:12:32.753Z,510.00
2023-03-29T02:13:32.826Z,510.00
2023-03-29T02:14:32.844Z,511.00
2023-03-29T02:15:32.867Z,508.00
2023-03-29T02:16:32.868Z,506.00
2023-03-29T02:17:32.926Z,510.00
2023-03-29T02:18:32.925Z,505.00
2023-03-29T02:19:32.949Z,512.00
2023-03-29T02:20:33.009Z,511.00
2023-03-29T02:21:32.990Z,505.00
2023-03-29T02:22:32.996Z,508.00
2023-03-29T02:23:33.018Z,509.00
2023-03-29T02:24:33.053Z,511.00
2023-03-29T02:25:33.081Z,509.00
2023-03-29T02:26:33.094Z,508.00
2023-03-29T02:27:33.086Z,503.00
2023-03-29T02:28:33.141Z,509.00
2023-03-29T02:29:33.151Z,507.00
2023-03-29T02:30:33.176Z,509.00
2023-03-29T02:31:33.272Z,506.00
2023-03-29T02:32:33.242Z,507.00
2023-03-29T02:33:33.258Z,505.00
2023-03-29T02:34:33.287Z,505.00
2023-03-29T02:35:33.369Z,506.00
2023-03-29T02:36:33.354Z,508.00
2023-03-29T02:37:33.364Z,504.00
2023-03-29T02:38:33.364Z,506.00
2023-03-29T02:39:33.396Z,503.00
2023-03-29T02:40:33.432Z,506.00
2023-03-29T02:41:33.435Z,507.00
2023-03-29T02:42:33.474Z,503.00
2023-03-29T02:43:33.475Z,501.00
2023-03-29T02:44:33.506Z,503.00
2023-03-29T02:45:33.532Z,504.00
2023-03-29T02:46:33.546Z,506.00
2023-03-29T02:47:33.611Z,506.00
2023-03-29T02:48:33.594Z,509.00
2023-03-29T02:49:33.602Z,505.00
2023-03-29T02:50:33.637Z,507.00
2023-03-29T02:51:33.664Z,508.00
2023-03-29T02:52:33.691Z,508.00
2023-03-29T02:53:33.694Z,504.00
2023-03-29T02:54:33.747Z,504.00
2023-03-29T02:55:33.747Z,503.00
2023-03-29T02:56:33.808Z,506.00
2023-03-29T02:57:33.811Z,507.00
2023-03-29T02:58:33.854Z,509.00
2023-03-29T02:59:33.853Z,507.00
2023-03-29T03:00:33.899Z,505.00
2023-03-29T03:01:33.953Z,508.00
2023-03-29T03:02:34.051Z,504.00
2023-03-29T03:03:34.141Z,507.00
2023-03-29T03:04:33.984Z,507.00
2023-03-29T03:05:33.997Z,504.00
2023-03-29T03:06:34.034Z,506.00
2023-03-29T03:07:34.066Z,504.00
2023-03-29T03:08:34.095Z,503.00
2023-03-29T03:09:34.136Z,502.00
2023-03-29T03:10:34.124Z,503.00
2023-03-29T03:11:34.155Z,503.00
2023-03-29T03:12:34.204Z,505.00
2023-03-29T03:13:34.227Z,504.00
2023-03-29T03:14:34.266Z,508.00
2023-03-29T03:15:34.264Z,505.00
2023-03-29T03:16:34.391Z,502.00
2023-03-29T03:17:34.364Z,501.00
2023-03-29T03:18:34.357Z,503.00
2023-03-29T03:19:34.355Z,504.00
2023-03-29T03:20:34.410Z,500.00
2023-03-29T03:21:34.429Z,507.00
2023-03-29T03:22:34.469Z,504.00
2023-03-29T03:23:34.511Z,504.00
2023-03-29T03:24:34.537Z,507.00
2023-03-29T03:25:34.595Z,508.00
2023-03-29T03:26:34.592Z,508.00
2023-03-29T03:27:34.641Z,505.00
2023-03-29T03:28:34.667Z,507.00
2023-03-29T03:29:34.689Z,505.00
2023-03-29T03:30:34.766Z,506.00
2023-03-29T03:31:34.799Z,506.00
2023-03-29T03:32:34.781Z,506.00
2023-03-29T03:33:34.819Z,505.00
2023-03-29T03:34:34.789Z,505.00
2023-03-29T03:35:34.876Z,504.00
2023-03-29T03:36:34.875Z,503.00
2023-03-29T03:37:34.889Z,503.00
2023-03-29T03:38:34.932Z,505.00
2023-03-29T03:39:34.961Z,503.00
2023-03-29T03:40:35.001Z,507.00
2023-03-29T03:41:35.001Z,502.00
2023-03-29T03:42:35.040Z,507.00
2023-03-29T03:43:35.073Z,502.00
2023-03-29T03:44:35.082Z,507.00
2023-03-29T03:45:35.159Z,506.00
2023-03-29T03:46:35.168Z,505.00
2023-03-29T03:47:35.225Z,505.00
2023-03-29T03:48:35.201Z,510.00
2023-03-29T03:49:35.242Z,508.00
2023-03-29T03:50:35.303Z,505.00
2023-03-29T03:51:35.276Z,507.00
2023-03-29T03:52:35.350Z,508.00
2023-03-29T03:53:35.366Z,507.00
2023-03-29T03:54:35.418Z,507.00
2023-03-29T03:55:35.419Z,504.00
2023-03-29T03:56:35.461Z,508.00
2023-03-29T03:57:35.505Z,507.00
2023-03-29T03:58:35.552Z,506.00
2023-03-29T03:59:35.566Z,509.00
2023-03-29T04:00:35.563Z,507.00
2023-03-29T04:01:35.688Z,508.00
2023-03-29T04:02:35.699Z,503.00
2023-03-29T04:03:35.741Z,508.00
2023-03-29T04:04:35.725Z,507.00
2023-03-29T04:05:35.757Z,506.00
2023-03-29T04:06:35.775Z,503.00
2023-03-29T04:07:35.823Z,504.00
2023-03-29T04:08:35.823Z,506.00
2023-03-29T04:09:35.877Z,501.00
2023-03-29T04:10:35.896Z,503.00
2023-03-29T04:11:35.899Z,501.00
2023-03-29T04:12:35.951Z,503.00
2023-03-29T04:13:35.958Z,504.00
2023-03-29T04:14:36.001Z,503.00
2023-03-29T04:15:36.048Z,504.00
2023-03-29T04:16:36.039Z,503.00
2023-03-29T04:17:36.153Z,500.00
2023-03-29T04:18:36.264Z,504.00
2023-03-29T04:19:36.126Z,503.00
2023-03-29T04:20:36.176Z,501.00
2023-03-29T04:21:36.195Z,506.00
2023-03-29T04:22:36.216Z,507.00
2023-03-29T04:23:36.286Z,508.00
2023-03-29T04:24:36.269Z,507.00
2023-03-29T04:25:36.300Z,509.00
2023-03-29T04:26:36.378Z,511.00
2023-03-29T04:27:36.367Z,504.00
2023-03-29T04:28:36.396Z,507.00
2023-03-29T04:29:36.417Z,510.00
2023-03-29T04:30:36.483Z,507.00
2023-03-29T04:31:36.549Z,505.00
2023-03-29T04:32:36.562Z,506.00
2023-03-29T04:33:36.580Z,507.00
2023-03-29T04:34:36.556Z,508.00
2023-03-29T04:35:36.636Z,509.00
2023-03-29T04:36:36.643Z,509.00
2023-03-29T04:37:36.672Z,508.00
2023-03-29T04:38:36.720Z,505.00
2023-03-29T04:39:37.317Z,510.00
2023-03-29T04:40:36.783Z,510.00
2023-03-29T04:41:36.801Z,507.00
2023-03-29T04:42:36.809Z,508.00
2023-03-29T04:43:37.846Z,508.00
2023-03-29T04:44:36.918Z,513.00
2023-03-29T04:45:36.812Z,511.00
2023-03-29T04:46:36.902Z,509.00
2023-03-29T04:47:36.850Z,509.00
2023-03-29T04:48:36.804Z,507.00
2023-03-29T04:49:36.794Z,510.00
2023-03-29T04:50:36.786Z,505.00
2023-03-29T04:51:36.794Z,507.00
2023-03-29T04:52:36.788Z,513.00
2023-03-29T04:53:36.770Z,506.00
2023-03-29T04:54:36.769Z,509.00
2023-03-29T04:55:36.769Z,509.00
2023-03-29T04:56:36.775Z,505.00
2023-03-29T04:57:36.748Z,505.00
2023-03-29T04:58:36.765Z,504.00
2023-03-29T04:59:36.735Z,507.00
2023-03-29T05:00:43.736Z,507.00
2023-03-29T05:01:36.778Z,508.00
2023-03-29T05:02:36.803Z,509.00
2023-03-29T05:03:36.712Z,509.00
2023-03-29T05:04:36.817Z,511.00
2023-03-29T05:05:36.725Z,513.00
2023-03-29T05:06:36.713Z,509.00
2023-03-29T05:07:36.698Z,510.00
2023-03-29T05:08:36.682Z,508.00
2023-03-29T05:09:36.690Z,508.00
2023-03-29T05:10:36.659Z,508.00
2023-03-29T05:11:36.660Z,510.00
2023-03-29T05:12:36.672Z,508.00
2023-03-29T05:13:36.673Z,511.00
2023-03-29T05:14:36.640Z,506.00
2023-03-29T05:15:36.666Z,510.00
2023-03-29T05:17:55.670Z,500.00
2023-03-29T05:18:55.634Z,500.00
2023-03-29T05:19:55.675Z,500.00
2023-03-29T05:20:55.700Z,500.00
2023-03-29T05:21:55.774Z,500.00
2023-03-29T05:22:55.823Z,502.00
2023-03-29T05:23:55.886Z,501.00
2023-03-29T05:24:55.897Z,503.00
2023-03-29T05:25:55.959Z,501.00
2023-03-29T05:26:55.993Z,503.00
2023-03-29T05:27:56.024Z,502.00
2023-03-29T05:28:56.096Z,501.00
2023-03-29T05:29:56.126Z,500.00
2023-03-29T05:30:56.154Z,505.00
2023-03-29T05:31:56.257Z,506.00
2023-03-29T05:32:56.265Z,521.00
2023-03-29T05:33:56.310Z,539.00
2023-03-29T05:34:56.323Z,554.00
2023-03-29T05:35:56.399Z,555.00
2023-03-29T05:36:56.384Z,554.00
2023-03-29T05:37:56.497Z,558.00
2023-03-29T05:38:56.516Z,566.00
2023-03-29T05:40:05.617Z,569.00
2023-03-29T05:40:57.547Z,570.00
2023-03-29T05:41:56.568Z,564.00
2023-03-29T05:42:56.580Z,557.00
2023-03-29T05:43:56.720Z,546.00
2023-03-29T05:44:56.608Z,541.00
2023-03-29T05:46:03.637Z,537.00
2023-03-29T05:46:57.581Z,538.00
2023-03-29T05:47:56.610Z,542.00
2023-03-29T05:48:56.771Z,545.00
2023-03-29T05:49:56.523Z,551.00
2023-03-29T05:50:56.517Z,562.00
2023-03-29T05:51:56.480Z,567.00
2023-03-29T05:52:56.516Z,569.00
2023-03-29T05:53:56.467Z,577.00
2023-03-29T05:54:56.464Z,578.00
2023-03-29T05:55:56.469Z,582.00
2023-03-29T05:56:56.509Z,588.00
2023-03-29T05:57:56.473Z,592.00
2023-03-29T05:58:56.440Z,597.00
2023-03-29T05:59:56.442Z,602.00
2023-03-29T06:00:56.446Z,606.00
2023-03-29T06:01:56.511Z,609.00
2023-03-29T06:03:01.316Z,613.00
2023-03-29T06:03:57.542Z,614.00
2023-03-29T06:04:56.758Z,617.00
2023-03-29T06:05:56.420Z,626.00
2023-03-29T06:06:56.372Z,639.00
2023-03-29T06:07:56.606Z,659.00
2023-03-29T06:08:56.348Z,664.00
2023-03-29T06:09:56.410Z,700.00
2023-03-29T06:10:56.333Z,718.00
2023-03-29T06:11:56.443Z,725.00
2023-03-29T06:12:56.381Z,736.00
2023-03-29T06:13:56.321Z,775.00
2023-03-29T06:14:56.298Z,786.00
2023-03-29T06:15:56.358Z,802.00
2023-03-29T06:16:56.330Z,822.00
2023-03-29T06:17:56.429Z,846.00
2023-03-29T06:18:56.299Z,861.00
2023-03-29T06:19:56.383Z,871.00
2023-03-29T06:20:56.320Z,877.00
2023-03-29T06:21:56.282Z,885.00
2023-03-29T06:22:56.298Z,902.00
2023-03-29T06:23:56.317Z,908.00
2023-03-29T06:24:56.771Z,930.00
2023-03-29T06:25:56.318Z,937.00
2023-03-29T06:26:56.266Z,949.00
2023-03-29T06:27:56.263Z,962.00
2023-03-29T06:28:56.267Z,978.00
2023-03-29T06:29:56.758Z,980.00
2023-03-29T06:30:56.466Z,999.00
2023-03-29T06:31:56.228Z,990.00
2023-03-29T06:32:56.293Z,1019.00
2023-03-29T06:33:56.220Z,1053.00
2023-03-29T06:34:56.200Z,1149.00
2023-03-29T06:35:56.231Z,1044.00
2023-03-29T06:36:56.197Z,1038.00
2023-03-29T06:37:56.194Z,965.00
2023-03-29T06:38:56.212Z,964.00
2023-03-29T06:39:56.240Z,1013.00
2023-03-29T06:40:56.158Z,1030.00
2023-03-29T06:41:56.141Z,1015.00
2023-03-29T06:42:56.181Z,1018.00
2023-03-29T06:43:56.128Z,1008.00
2023-03-29T06:44:56.307Z,1028.00
2023-03-29T06:45:56.153Z,988.00
2023-03-29T06:46:56.173Z,966.00
2023-03-29T06:47:56.339Z,971.00
2023-03-29T06:48:56.215Z,961.00
2023-03-29T06:49:56.124Z,920.00
2023-03-29T06:50:56.111Z,930.00
2023-03-29T06:51:56.130Z,938.00
2023-03-29T06:52:56.127Z,926.00
2023-03-29T06:53:56.159Z,908.00
2023-03-29T06:54:56.162Z,908.00
2023-03-29T06:55:56.154Z,881.00
2023-03-29T06:56:56.193Z,871.00
2023-03-29T06:57:56.128Z,869.00
2023-03-29T06:58:56.145Z,871.00
2023-03-29T06:59:56.148Z,869.00
2023-03-29T07:00:56.132Z,859.00
2023-03-29T07:01:56.174Z,844.00
2023-03-29T07:02:56.242Z,833.00
2023-03-29T07:03:56.191Z,843.00
2023-03-29T07:04:56.246Z,808.00
2023-03-29T07:05:56.224Z,814.00
2023-03-29T07:06:56.206Z,804.00
2023-03-29T07:07:56.239Z,810.00
2023-03-29T07:08:56.237Z,816.00
2023-03-29T07:09:56.232Z,805.00
2023-03-29T07:10:56.258Z,802.00
2023-03-29T07:11:56.265Z,796.00
2023-03-29T07:12:56.338Z,797.00
2023-03-29T07:13:56.336Z,768.00
2023-03-29T07:14:56.754Z,758.00
2023-03-29T07:15:56.504Z,743.00
2023-03-29T07:16:56.398Z,709.00
2023-03-29T07:17:56.420Z,697.00
2023-03-29T07:18:56.471Z,691.00
2023-03-29T07:19:56.460Z,693.00
2023-03-29T07:20:56.500Z,677.00
2023-03-29T07:21:56.500Z,672.00
2023-03-29T07:22:56.541Z,669.00
2023-03-29T07:23:56.560Z,671.00
2023-03-29T07:24:56.561Z,668.00
2023-03-29T07:25:56.596Z,666.00
2023-03-29T07:27:04.243Z,661.00
2023-03-29T07:27:57.598Z,661.00
2023-03-29T07:28:56.571Z,661.00
2023-03-29T07:29:56.592Z,651.00
2023-03-29T07:30:56.590Z,657.00
2023-03-29T07:31:56.556Z,657.00
2023-03-29T07:32:56.628Z,660.00
2023-03-29T07:33:56.651Z,651.00
2023-03-29T07:34:56.572Z,650.00
2023-03-29T07:35:56.540Z,643.00
2023-03-29T07:36:56.546Z,645.00
2023-03-29T07:37:56.528Z,635.00
2023-03-29T07:38:56.538Z,648.00
2023-03-29T07:39:56.517Z,648.00
2023-03-29T07:40:56.498Z,643.00
2023-03-29T07:41:56.538Z,638.00
2023-03-29T07:42:56.537Z,648.00
2023-03-29T07:43:56.468Z,657.00
2023-03-29T07:44:56.762Z,652.00
2023-03-29T07:45:56.489Z,661.00
2023-03-29T07:46:56.482Z,661.00
2023-03-29T07:47:56.608Z,657.00
2023-03-29T07:48:56.533Z,664.00
2023-03-29T07:49:56.527Z,690.00
2023-03-29T07:50:56.517Z,702.00
2023-03-29T07:51:56.542Z,717.00
2023-03-29T07:52:56.564Z,746.00
2023-03-29T07:53:56.613Z,758.00
2023-03-29T07:54:56.608Z,762.00
2023-03-29T07:55:56.575Z,768.00
2023-03-29T07:56:56.668Z,762.00
2023-03-29T07:57:56.627Z,756.00
2023-03-29T07:58:56.631Z,772.00
2023-03-29T07:59:56.609Z,770.00
2023-03-29T08:00:56.641Z,779.00
2023-03-29T08:01:56.593Z,758.00
2023-03-29T08:02:56.735Z,760.00
2023-03-29T08:03:56.793Z,778.00
2023-03-29T08:04:56.705Z,778.00
2023-03-29T08:05:56.640Z,785.00
2023-03-29T08:06:56.948Z,790.00
2023-03-29T08:07:56.632Z,800.00
2023-03-29T08:08:56.655Z,803.00
2023-03-29T08:09:56.624Z,810.00
2023-03-29T08:10:56.652Z,828.00
2023-03-29T08:11:56.657Z,846.00
2023-03-29T08:12:56.621Z,832.00
2023-03-29T08:13:56.630Z,831.00
2023-03-29T08:14:56.658Z,842.00
2023-03-29T08:15:56.625Z,849.00
2023-03-29T08:16:56.716Z,856.00
2023-03-29T08:17:56.739Z,871.00
2023-03-29T08:18:56.756Z,856.00
2023-03-29T08:19:56.925Z,865.00
2023-03-29T08:20:56.651Z,846.00
2023-03-29T08:21:56.580Z,855.00
2023-03-29T08:22:56.824Z,887.00
2023-03-29T08:23:56.596Z,879.00
2023-03-29T08:24:56.609Z,876.00
2023-03-29T08:25:56.613Z,884.00
2023-03-29T08:26:57.268Z,894.00
2023-03-29T08:27:57.627Z,890.00
2023-03-29T08:28:56.717Z,903.00
2023-03-29T08:29:56.643Z,908.00
2023-03-29T08:30:56.677Z,920.00
2023-03-29T08:31:56.629Z,955.00
2023-03-29T08:32:56.668Z,954.00
2023-03-29T08:33:56.649Z,1015.00
2023-03-29T08:34:56.795Z,1135.00
2023-03-29T08:35:56.796Z,1081.00
2023-03-29T08:36:56.616Z,1131.00
2023-03-29T08:37:56.619Z,1104.00
2023-03-29T08:38:56.623Z,1125.00
2023-03-29T08:39:56.624Z,1093.00
2023-03-29T08:40:56.623Z,1093.00
2023-03-29T08:41:56.621Z,1093.00
2023-03-29T08:42:56.597Z,1076.00
2023-03-29T08:43:56.631Z,1084.00
2023-03-29T08:44:56.642Z,1072.00
2023-03-29T08:45:56.642Z,1082.00
2023-03-29T08:46:56.640Z,1084.00
2023-03-29T08:47:56.661Z,1078.00
2023-03-29T08:48:56.669Z,1068.00
2023-03-29T08:49:56.678Z,1068.00
2023-03-29T08:50:56.613Z,1087.00
2023-03-29T08:51:56.614Z,1088.00
2023-03-29T08:52:56.634Z,1105.00
2023-03-29T08:53:56.598Z,1096.00
2023-03-29T08:54:56.702Z,1143.00
2023-03-29T08:55:56.610Z,1122.00
2023-03-29T08:56:56.681Z,1127.00
2023-03-29T08:57:57.203Z,1123.00
2023-03-29T08:58:56.633Z,1140.00
2023-03-29T08:59:56.597Z,1187.00
2023-03-29T09:00:56.611Z,1198.00
2023-03-29T09:01:56.634Z,1253.00
2023-03-29T09:02:56.722Z,1257.00
2023-03-29T09:03:57.357Z,1242.00
2023-03-29T09:04:56.628Z,1241.00
2023-03-29T09:05:56.686Z,1227.00
2023-03-29T09:06:56.662Z,1271.00
2023-03-29T09:07:56.693Z,1282.00
2023-03-29T09:08:56.730Z,1286.00
2023-03-29T09:09:56.762Z,1301.00
2023-03-29T09:10:56.766Z,1301.00
2023-03-29T09:11:56.755Z,1293.00
2023-03-29T09:12:56.936Z,1303.00
2023-03-29T09:13:56.843Z,1318.00
2023-03-29T09:14:57.294Z,1289.00
2023-03-29T09:15:56.947Z,1302.00
2023-03-29T09:16:56.856Z,1312.00
2023-03-29T09:17:56.929Z,1294.00
2023-03-29T09:18:56.893Z,1298.00
2023-03-29T09:19:56.934Z,1290.00
2023-03-29T09:20:56.963Z,1271.00
2023-03-29T09:21:56.972Z,1283.00
2023-03-29T09:22:56.900Z,1287.00
2023-03-29T09:23:56.900Z,1281.00
2023-03-29T09:24:56.881Z,1298.00
2023-03-29T09:25:56.923Z,1292.00
2023-03-29T09:26:56.889Z,1304.00
2023-03-29T09:27:56.876Z,1287.00
2023-03-29T09:28:56.870Z,1290.00
2023-03-29T09:29:56.872Z,1277.00
2023-03-29T09:30:57.291Z,1269.00
2023-03-29T09:31:56.983Z,1281.00
2023-03-29T09:32:56.939Z,1275.00
2023-03-29T09:33:56.871Z,1255.00
2023-03-29T09:34:56.904Z,1241.00
2023-03-29T09:35:56.989Z,1250.00
2023-03-29T09:36:56.907Z,1249.00
2023-03-29T09:37:56.905Z,1246.00
2023-03-29T09:38:56.920Z,1235.00
2023-03-29T09:39:56.906Z,1237.00
2023-03-29T09:40:57.378Z,1222.00
2023-03-29T09:41:56.926Z,1228.00
2023-03-29T09:42:56.932Z,1210.00
2023-03-29T09:43:56.966Z,1210.00
2023-03-29T09:44:56.943Z,1201.00
2023-03-29T09:45:56.976Z,1195.00
2023-03-29T09:46:56.963Z,1193.00
2023-03-29T09:47:57.095Z,1169.00
2023-03-29T09:48:56.967Z,1184.00
2023-03-29T09:49:56.995Z,1165.00
2023-03-29T09:50:56.987Z,1162.00
2023-03-29T09:51:57.028Z,1163.00
2023-03-29T09:52:57.025Z,1143.00
2023-03-29T09:53:57.057Z,1171.00
2023-03-29T09:54:57.044Z,1154.00
2023-03-29T09:55:57.079Z,1141.00
2023-03-29T09:56:57.190Z,1150.00
2023-03-29T09:57:57.124Z,1132.00
2023-03-29T09:58:57.128Z,1137.00
2023-03-29T09:59:57.106Z,1137.00
2023-03-29T10:00:57.406Z,1139.00
2023-03-29T10:01:57.165Z,1120.00
2023-03-29T10:02:57.243Z,1124.00
2023-03-29T10:03:57.223Z,1117.00
2023-03-29T10:04:57.934Z,1105.00
2023-03-29T10:05:57.378Z,1093.00
2023-03-29T10:06:57.193Z,1081.00
2023-03-29T10:07:57.224Z,1098.00
2023-03-29T10:08:57.221Z,1090.00
2023-03-29T10:09:57.230Z,1047.00
2023-03-29T10:10:57.227Z,1061.00
2023-03-29T10:11:57.227Z,1022.00
2023-03-29T10:12:57.277Z,1042.00
2023-03-29T10:13:57.281Z,1039.00
2023-03-29T10:14:57.314Z,1047.00
2023-03-29T10:15:57.304Z,1017.00
2023-03-29T10:16:57.394Z,1034.00
2023-03-29T10:17:57.398Z,1196.00
2023-03-29T10:18:57.335Z,1293.00
2023-03-29T10:19:57.368Z,1149.00
2023-03-29T10:20:57.448Z,1082.00
2023-03-29T10:21:57.410Z,1050.00
2023-03-29T10:22:57.419Z,1110.00
2023-03-29T10:23:57.425Z,1153.00
2023-03-29T10:24:57.428Z,1166.00
2023-03-29T10:25:57.560Z,1159.00
2023-03-29T10:26:57.445Z,1145.00
2023-03-29T10:27:57.460Z,1125.00
2023-03-29T10:28:57.588Z,1114.00
2023-03-29T10:29:57.515Z,1108.00
2023-03-29T10:30:57.912Z,1123.00
2023-03-29T10:31:57.537Z,1114.00
2023-03-29T10:32:57.581Z,1114.00
2023-03-29T10:33:57.537Z,1116.00
2023-03-29T10:34:57.616Z,1114.00
2023-03-29T10:35:57.895Z,1107.00
2023-03-29T10:36:57.561Z,1090.00
2023-03-29T10:37:57.562Z,1106.00
2023-03-29T10:38:57.565Z,1092.00
2023-03-29T10:39:57.572Z,1100.00
2023-03-29T10:40:57.595Z,1100.00
2023-03-29T10:41:57.598Z,1103.00
2023-03-29T10:42:57.589Z,1093.00
2023-03-29T10:43:57.592Z,1093.00
2023-03-29T10:44:57.645Z,1097.00
2023-03-29T10:45:57.638Z,1073.00
2023-03-29T10:46:57.643Z,1070.00
2023-03-29T10:47:57.714Z,1082.00
2023-03-29T10:48:57.631Z,1077.00
2023-03-29T10:49:57.660Z,1064.00
2023-03-29T10:50:57.856Z,1054.00
2023-03-29T10:51:57.668Z,1063.00
2023-03-29T10:52:57.666Z,1050.00
2023-03-29T10:53:57.692Z,1057.00
2023-03-29T10:54:57.671Z,1053.00
2023-03-29T10:55:57.676Z,1040.00
2023-03-29T10:56:57.812Z,1033.00
2023-03-29T10:57:57.693Z,1026.00
2023-03-29T10:58:57.711Z,1040.00
2023-03-29T10:59:57.672Z,1029.00
2023-03-29T11:00:57.686Z,1019.00
2023-03-29T11:01:57.746Z,1013.00
2023-03-29T11:02:57.740Z,1002.00
2023-03-29T11:03:57.748Z,1011.00
2023-03-29T11:04:57.700Z,1002.00
2023-03-29T11:05:57.724Z,1006.00
2023-03-29T11:06:57.718Z,1001.00
2023-03-29T11:07:57.739Z,994.00
2023-03-29T11:08:57.702Z,984.00
2023-03-29T11:09:57.710Z,978.00
2023-03-29T11:10:57.759Z,979.00
2023-03-29T11:12:08.535Z,977.00
2023-03-29T11:12:58.725Z,977.00
2023-03-29T11:13:59.885Z,978.00
2023-03-29T11:14:57.708Z,971.00
2023-03-29T11:15:57.729Z,976.00
2023-03-29T11:16:57.704Z,947.00
2023-03-29T11:17:57.733Z,959.00
2023-03-29T11:18:57.706Z,956.00
2023-03-29T11:19:57.700Z,966.00
2023-03-29T11:20:57.856Z,955.00
2023-03-29T11:21:57.680Z,942.00
2023-03-29T11:22:57.690Z,935.00
2023-03-29T11:23:57.726Z,936.00
2023-03-29T11:24:57.799Z,928.00
2023-03-29T11:25:57.904Z,914.00
2023-03-29T11:26:57.753Z,914.00
2023-03-29T11:27:57.730Z,875.00
2023-03-29T11:28:57.728Z,854.00
2023-03-29T11:29:57.743Z,867.00
2023-03-29T11:30:57.983Z,843.00
2023-03-29T11:31:57.827Z,861.00
2023-03-29T11:32:57.782Z,850.00
2023-03-29T11:33:57.745Z,876.00
2023-03-29T11:34:57.805Z,887.00
2023-03-29T11:35:57.852Z,892.00
2023-03-29T11:36:57.862Z,901.00
2023-03-29T11:37:57.773Z,876.00
2023-03-29T11:38:57.772Z,877.00
2023-03-29T11:39:57.744Z,886.00
2023-03-29T11:40:57.709Z,884.00
2023-03-29T11:41:57.757Z,894.00
2023-03-29T11:42:57.763Z,890.00
2023-03-29T11:43:57.759Z,885.00
2023-03-29T11:44:57.810Z,884.00
2023-03-29T11:45:57.755Z,886.00
2023-03-29T11:46:57.829Z,875.00
2023-03-29T11:47:57.790Z,877.00
2023-03-29T11:48:57.740Z,858.00
2023-03-29T11:49:57.755Z,863.00
2023-03-29T11:50:57.748Z,864.00
2023-03-29T11:51:57.764Z,862.00
2023-03-29T11:52:57.728Z,853.00
2023-03-29T11:53:57.720Z,845.00
2023-03-29T11:54:57.759Z,845.00
2023-03-29T11:55:57.762Z,841.00
2023-03-29T11:56:57.780Z,835.00
2023-03-29T11:57:57.744Z,842.00
2023-03-29T11:58:57.744Z,825.00
2023-03-29T11:59:57.710Z,824.00
2023-03-29T12:00:57.718Z,824.00
2023-03-29T12:01:57.712Z,835.00
2023-03-29T12:02:57.772Z,822.00
2023-03-29T12:03:57.740Z,827.00
2023-03-29T12:04:57.709Z,805.00
2023-03-29T12:05:57.718Z,820.00
2023-03-29T12:06:57.756Z,820.00
2023-03-29T12:07:57.665Z,807.00
2023-03-29T12:08:57.664Z,800.00
2023-03-29T12:09:57.740Z,797.00
2023-03-29T12:10:57.743Z,789.00
2023-03-29T12:11:57.755Z,784.00
2023-03-29T12:12:57.706Z,793.00
2023-03-29T12:13:57.731Z,803.00
2023-03-29T12:14:57.774Z,792.00
2023-03-29T12:15:57.761Z,787.00
2023-03-29T12:16:57.776Z,784.00
2023-03-29T12:17:57.778Z,765.00
2023-03-29T12:18:57.801Z,773.00
2023-03-29T12:19:57.846Z,773.00
2023-03-29T12:20:57.921Z,772.00
2023-03-29T12:21:57.909Z,771.00
2023-03-29T12:22:57.936Z,758.00
2023-03-29T12:23:57.988Z,783.00
2023-03-29T12:24:58.007Z,778.00